Time;durP1;ratioP1;P1;durP2;ratioP2;P2;SDS_P1;SDS_P2;PMS_P1;PMS_P2;Temp;Humidity;BMP_temperature;BMP_pressure;BME280_temperature;BME280_humidity;BME280_pressure;Samples;Min_cycle;Max_cycle;Signal;HPM_P1;HPM_P2
2022/04/06 00:00:08;;;;;;;372.90;145.67;;;;;;;-144.77;100.00;59014.09;337768;29;870;-69
2022/04/06 00:00:18;;;;;;;374.50;144.57;;;;;;;-144.77;100.00;59014.09;339211;29;1473;-69
2022/04/06 00:00:28;;;;;;;373.90;140.88;;;;;;;-144.77;100.00;59014.09;340837;28;1155;-69
2022/04/06 00:00:40;;;;;;;372.33;138.67;;;;;;;-144.77;100.00;59014.09;340525;28;1182;-69
2022/04/06 00:00:50;;;;;;;369.30;137.88;;;;;;;-144.77;100.00;59014.09;338103;29;847;-69
2022/04/06 00:01:00;;;;;;;367.42;139.48;;;;;;;-144.77;100.00;59014.09;338082;28;1121;-69
2022/04/06 00:01:11;;;;;;;366.47;137.47;;;;;;;-144.77;100.00;59014.09;341010;28;1327;-69
2022/04/06 00:01:21;;;;;;;368.02;139.77;;;;;;;-144.77;100.00;59014.09;339614;29;2017;-69
2022/04/06 00:01:33;;;;;;;370.33;139.83;;;;;;;-144.77;100.00;59014.09;339386;29;1051;-69
2022/04/06 00:01:44;;;;;;;372.63;142.13;;;;;;;-144.77;100.00;59014.09;339381;29;838;-69
2022/04/06 00:01:54;;;;;;;373.98;142.52;;;;;;;-144.77;100.00;59014.09;340840;28;889;-69
2022/04/06 00:02:05;;;;;;;373.10;141.33;;;;;;;-144.77;100.00;59014.09;340911;28;832;-69
2022/04/06 00:02:15;;;;;;;372.48;142.20;;;;;;;-144.77;100.00;59014.09;337858;29;1432;-69
2022/04/06 00:02:25;;;;;;;372.40;143.13;;;;;;;-144.77;100.00;59014.09;338126;29;770;-69
2022/04/06 00:02:38;;;;;;;372.03;144.67;;;;;;;-144.77;100.00;59014.09;338058;29;990;-69
2022/04/06 00:02:48;;;;;;;371.88;142.85;;;;;;;-144.77;100.00;59014.09;338216;29;924;-69
2022/04/06 00:02:58;;;;;;;372.07;141.27;;;;;;;-144.77;100.00;59014.09;340502;28;1302;-69
2022/04/06 00:03:09;;;;;;;368.27;136.50;;;;;;;-144.77;100.00;59014.09;338280;29;1208;-69
2022/04/06 00:03:19;;;;;;;367.03;135.83;;;;;;;-144.77;100.00;59014.09;339296;29;813;-69
2022/04/06 00:03:29;;;;;;;367.48;136.00;;;;;;;-144.77;100.00;59014.09;340932;28;1300;-69
2022/04/06 00:03:40;;;;;;;369.77;137.47;;;;;;;-144.77;100.00;59014.09;340846;28;1303;-69
2022/04/06 00:03:51;;;;;;;370.33;139.00;;;;;;;-144.77;100.00;59014.09;339520;29;1206;-69
2022/04/06 00:04:02;;;;;;;371.25;140.80;;;;;;;-144.77;100.00;59014.09;339344;28;1252;-69
2022/04/06 00:04:12;;;;;;;373.43;141.13;;;;;;;-144.77;100.00;59014.09;340615;28;1332;-69
2022/04/06 00:04:23;;;;;;;371.50;139.00;;;;;;;-144.77;100.00;59014.09;338228;29;1398;-69
2022/04/06 00:04:34;;;;;;;369.40;138.52;;;;;;;-144.77;100.00;59014.09;337256;29;791;-69
2022/04/06 00:04:44;;;;;;;367.27;139.13;;;;;;;-144.77;100.00;59014.09;335981;29;803;-69
2022/04/06 00:04:54;;;;;;;370.67;142.43;;;;;;;-144.77;100.00;59014.09;335668;29;802;-69
2022/04/06 00:05:10;;;;;;;370.80;141.48;;;;;;;-144.77;100.00;59014.09;337246;29;833;-69
2022/04/06 00:05:21;;;;;;;371.84;141.28;;;;;;;-144.77;100.00;59014.09;339198;29;1276;-69
2022/04/06 00:05:31;;;;;;;369.37;138.87;;;;;;;-144.77;100.00;59014.09;338794;29;1084;-69
2022/04/06 00:05:42;;;;;;;369.73;140.13;;;;;;;-144.77;100.00;59014.09;338147;29;877;-69
2022/04/06 00:05:53;;;;;;;369.00;137.85;;;;;;;-144.77;100.00;59014.09;338146;29;787;-69
2022/04/06 00:06:03;;;;;;;369.88;140.15;;;;;;;-144.77;100.00;59014.09;336720;29;902;-69
2022/04/06 00:06:14;;;;;;;371.58;141.25;;;;;;;-144.77;100.00;59014.09;337036;29;841;-69
2022/04/06 00:06:24;;;;;;;372.07;141.33;;;;;;;-144.77;100.00;59014.09;338210;29;763;-69
2022/04/06 00:06:34;;;;;;;369.98;138.52;;;;;;;-144.77;100.00;59014.09;336824;29;1200;-69
2022/04/06 00:06:45;;;;;;;368.30;138.97;;;;;;;-144.77;100.00;59014.09;339466;29;1266;-69
2022/04/06 00:06:55;;;;;;;367.40;138.10;;;;;;;-144.77;100.00;59014.09;340705;28;892;-70
2022/04/06 00:07:06;;;;;;;368.33;138.67;;;;;;;-144.77;100.00;59014.09;339164;28;1674;-69
2022/04/06 00:07:16;;;;;;;366.45;136.95;;;;;;;-144.77;100.00;59014.09;339213;29;1189;-69
2022/04/06 00:07:27;;;;;;;367.90;137.67;;;;;;;-144.77;100.00;59014.09;336933;29;818;-69
2022/04/06 00:07:41;;;;;;;371.15;140.10;;;;;;;-144.77;100.00;59014.09;337624;29;886;-69
2022/04/06 00:07:51;;;;;;;374.83;143.10;;;;;;;-144.77;100.00;59014.09;338479;29;1045;-69
2022/04/06 00:08:02;;;;;;;373.58;141.05;;;;;;;-144.77;100.00;59014.09;338194;29;924;-69
2022/04/06 00:08:12;;;;;;;372.50;139.97;;;;;;;-144.77;100.00;59014.09;337912;29;1021;-69
2022/04/06 00:08:23;;;;;;;371.95;137.77;;;;;;;-144.77;100.00;59014.09;338136;29;836;-68
2022/04/06 00:08:33;;;;;;;372.13;139.73;;;;;;;-144.77;100.00;59014.09;336674;29;1186;-68
2022/04/06 00:08:44;;;;;;;371.73;140.52;;;;;;;-144.77;100.00;59014.09;338225;29;1376;-69
2022/04/06 00:08:54;;;;;;;371.07;140.17;;;;;;;-144.77;100.00;59014.09;339656;28;1333;-69
2022/04/06 00:09:04;;;;;;;370.60;139.57;;;;;;;-144.77;100.00;59014.09;337529;29;1238;-69
2022/04/06 00:09:15;;;;;;;371.23;138.40;;;;;;;-144.77;100.00;59014.09;338146;29;795;-69
2022/04/06 00:09:25;;;;;;;371.60;138.93;;;;;;;-144.77;100.00;59014.09;336801;29;889;-69
2022/04/06 00:09:39;;;;;;;371.88;138.93;;;;;;;-144.77;100.00;59014.09;338258;29;1421;-69
2022/04/06 00:09:49;;;;;;;372.88;142.18;;;;;;;-144.77;100.00;59014.09;337514;29;779;-69
2022/04/06 00:10:00;;;;;;;371.97;142.63;;;;;;;-144.77;100.00;59014.09;336521;29;1377;-69
2022/04/06 00:10:11;;;;;;;369.70;140.60;;;;;;;-144.77;100.00;59014.09;339813;29;751;-69
2022/04/06 00:10:21;;;;;;;368.58;138.05;;;;;;;-144.77;100.00;59014.09;339075;29;895;-69
2022/04/06 00:10:32;;;;;;;367.80;137.37;;;;;;;-144.77;100.00;59014.09;339688;29;881;-69
2022/04/06 00:10:42;;;;;;;366.08;134.77;;;;;;;-144.77;100.00;59014.09;338714;29;1348;-69
2022/04/06 00:10:53;;;;;;;367.80;135.43;;;;;;;-144.77;100.00;59014.09;340953;28;845;-69
2022/04/06 00:11:03;;;;;;;370.25;135.93;;;;;;;-144.77;100.00;59014.09;341996;28;841;-69
2022/04/06 00:11:14;;;;;;;372.60;138.53;;;;;;;-144.77;100.00;59014.09;342240;28;810;-69
2022/04/06 00:11:24;;;;;;;373.77;139.25;;;;;;;-144.77;100.00;59014.09;342194;28;870;-69
2022/04/06 00:11:34;;;;;;;374.25;139.68;;;;;;;-144.77;100.00;59014.09;340491;28;1496;-68
2022/04/06 00:11:45;;;;;;;375.13;139.27;;;;;;;-144.77;100.00;59014.09;339344;29;1497;-68
2022/04/06 00:11:55;;;;;;;372.20;139.50;;;;;;;-144.77;100.00;59014.09;338397;29;1664;-68
2022/04/06 00:12:07;;;;;;;370.08;138.35;;;;;;;-144.77;100.00;59014.09;339154;29;968;-68
2022/04/06 00:12:17;;;;;;;368.17;137.68;;;;;;;-144.77;100.00;59014.09;336632;29;1061;-68
2022/04/06 00:12:28;;;;;;;368.80;137.67;;;;;;;-144.77;100.00;59014.09;340757;28;1293;-69
2022/04/06 00:12:38;;;;;;;368.60;137.45;;;;;;;-144.77;100.00;59014.09;336910;29;834;-68
2022/04/06 00:12:49;;;;;;;368.73;136.67;;;;;;;-144.77;100.00;59014.09;338394;29;870;-68
2022/04/06 00:12:59;;;;;;;367.52;135.32;;;;;;;-144.77;100.00;59014.09;339430;29;1394;-68
2022/04/06 00:13:10;;;;;;;366.23;136.37;;;;;;;-144.77;100.00;59014.09;341919;28;1296;-68
2022/04/06 00:13:20;;;;;;;368.10;138.43;;;;;;;-144.77;100.00;59014.09;340456;28;988;-69
2022/04/06 00:13:30;;;;;;;371.87;140.17;;;;;;;-144.77;100.00;59014.09;338263;29;826;-68
2022/04/06 00:13:41;;;;;;;371.95;139.60;;;;;;;-144.77;100.00;59014.09;339598;29;882;-68
2022/04/06 00:13:51;;;;;;;372.73;139.27;;;;;;;-144.77;100.00;59014.09;339456;29;1256;-68
2022/04/06 00:14:02;;;;;;;372.30;139.25;;;;;;;-144.77;100.00;59014.09;340652;28;1390;-68
2022/04/06 00:14:12;;;;;;;373.50;141.23;;;;;;;-144.77;100.00;59014.09;340577;28;886;-68
2022/04/06 00:14:23;;;;;;;371.50;139.02;;;;;;;-144.77;100.00;59014.09;339442;28;1479;-69
2022/04/06 00:14:35;;;;;;;371.00;138.55;;;;;;;-144.77;100.00;59014.09;338852;29;830;-69
2022/04/06 00:14:45;;;;;;;370.13;136.93;;;;;;;-144.77;100.00;59014.09;337335;29;834;-69
2022/04/06 00:14:56;;;;;;;369.52;138.95;;;;;;;-144.77;100.00;59014.09;337113;29;802;-68
2022/04/06 00:15:08;;;;;;;369.97;141.90;;;;;;;-144.77;100.00;59014.09;338649;29;825;-68
2022/04/06 00:15:18;;;;;;;370.98;141.50;;;;;;;-144.77;100.00;59014.09;340318;28;1008;-68
2022/04/06 00:15:29;;;;;;;369.50;138.10;;;;;;;-144.77;100.00;59014.09;340713;28;1363;-68
2022/04/06 00:15:39;;;;;;;366.42;137.90;;;;;;;-144.77;100.00;59014.09;339265;29;1165;-68
2022/04/06 00:15:50;;;;;;;369.10;141.70;;;;;;;-144.77;100.00;59014.09;339544;29;821;-68
2022/04/06 00:16:01;;;;;;;371.83;143.63;;;;;;;-144.77;100.00;59014.09;339672;29;924;-68
2022/04/06 00:16:11;;;;;;;371.75;141.82;;;;;;;-144.77;100.00;59014.09;339692;29;1449;-68
2022/04/06 00:16:21;;;;;;;372.93;141.90;;;;;;;-144.77;100.00;59014.09;339287;29;797;-68
2022/04/06 00:16:32;;;;;;;375.52;143.30;;;;;;;-144.77;100.00;59014.09;339286;29;794;-68
2022/04/06 00:16:43;;;;;;;376.03;145.70;;;;;;;-144.77;100.00;59014.09;337709;29;1746;-68
2022/04/06 00:16:54;;;;;;;373.30;142.27;;;;;;;-144.77;100.00;59014.09;339163;29;1238;-68
2022/04/06 00:17:05;;;;;;;373.40;141.20;;;;;;;-144.77;100.00;59014.09;339396;29;901;-68
2022/04/06 00:17:15;;;;;;;373.60;138.73;;;;;;;-144.77;100.00;59014.09;339355;29;1232;-68
2022/04/06 00:17:26;;;;;;;373.10;139.02;;;;;;;-144.77;100.00;59014.09;339540;29;1032;-69
2022/04/06 00:17:37;;;;;;;372.70;139.23;;;;;;;-144.77;100.00;59014.09;339103;29;928;-70
2022/04/06 00:17:47;;;;;;;374.33;144.23;;;;;;;-144.77;100.00;59014.09;338522;29;1369;-69
2022/04/06 00:17:58;;;;;;;372.47;144.07;;;;;;;-144.77;100.00;59014.09;339369;29;814;-69
2022/04/06 00:18:09;;;;;;;370.13;140.27;;;;;;;-144.77;100.00;59014.09;336725;29;1322;-69
2022/04/06 00:18:19;;;;;;;369.77;136.68;;;;;;;-144.77;100.00;59014.09;336362;29;854;-69
2022/04/06 00:18:30;;;;;;;371.00;135.67;;;;;;;-144.77;100.00;59014.09;339567;29;1359;-69
2022/04/06 00:18:40;;;;;;;374.05;140.07;;;;;;;-144.77;100.00;59014.09;340782;28;1294;-69
2022/04/06 00:18:51;;;;;;;372.57;139.93;;;;;;;-144.77;100.00;59014.09;343068;28;802;-69
2022/04/06 00:19:01;;;;;;;370.42;139.38;;;;;;;-144.77;100.00;59014.09;341453;28;1142;-69
2022/04/06 00:19:12;;;;;;;369.38;136.50;;;;;;;-144.77;100.00;59014.09;340504;28;1412;-69
2022/04/06 00:19:22;;;;;;;369.67;136.60;;;;;;;-144.77;100.00;59014.09;340886;28;873;-69
2022/04/06 00:19:33;;;;;;;370.20;137.82;;;;;;;-144.77;100.00;59014.09;334945;29;1311;-69
2022/04/06 00:19:43;;;;;;;370.60;140.23;;;;;;;-144.77;100.00;59014.09;335715;29;767;-69
2022/04/06 00:19:54;;;;;;;370.05;140.57;;;;;;;-144.77;100.00;59014.09;337240;29;815;-69
2022/04/06 00:20:06;;;;;;;367.50;139.80;;;;;;;-144.77;100.00;59014.09;340975;28;1482;-69
2022/04/06 00:20:16;;;;;;;368.52;139.57;;;;;;;-144.77;100.00;59014.09;341721;28;1269;-69
2022/04/06 00:20:26;;;;;;;370.92;140.77;;;;;;;-144.77;100.00;59014.09;339285;29;802;-69
2022/04/06 00:20:37;;;;;;;370.60;140.77;;;;;;;-144.77;100.00;59014.09;339401;29;895;-69
2022/04/06 00:20:47;;;;;;;368.33;140.07;;;;;;;-144.77;100.00;59014.09;341999;28;1129;-69
2022/04/06 00:20:58;;;;;;;366.37;137.70;;;;;;;-144.77;100.00;59014.09;339457;29;808;-69
2022/04/06 00:21:09;;;;;;;368.75;139.35;;;;;;;-144.77;100.00;59014.09;339236;29;1322;-69
2022/04/06 00:21:19;;;;;;;370.80;138.82;;;;;;;-144.77;100.00;59014.09;338086;29;841;-69
2022/04/06 00:21:29;;;;;;;370.07;139.87;;;;;;;-144.77;100.00;59014.09;339923;28;1994;-69
2022/04/06 00:21:40;;;;;;;368.80;139.13;;;;;;;-144.77;100.00;59014.09;339105;29;936;-69
2022/04/06 00:21:50;;;;;;;367.48;139.85;;;;;;;-144.77;100.00;59014.09;336791;29;813;-69
2022/04/06 00:22:01;;;;;;;369.87;139.60;;;;;;;-144.77;100.00;59014.09;340337;28;1337;-70
2022/04/06 00:22:11;;;;;;;371.25;140.82;;;;;;;-144.77;100.00;59014.09;339354;29;830;-69
2022/04/06 00:22:22;;;;;;;374.53;139.80;;;;;;;-144.77;100.00;59014.09;339676;28;1172;-69
2022/04/06 00:22:32;;;;;;;374.42;139.50;;;;;;;-144.77;100.00;59014.09;341848;28;1203;-69
2022/04/06 00:22:42;;;;;;;372.03;137.30;;;;;;;-144.77;100.00;59014.09;338079;29;1126;-69
2022/04/06 00:22:53;;;;;;;370.15;138.63;;;;;;;-144.77;100.00;59014.09;340749;28;1409;-69
2022/04/06 00:23:03;;;;;;;368.80;138.00;;;;;;;-144.77;100.00;59014.09;338278;29;806;-69
2022/04/06 00:23:15;;;;;;;365.73;135.90;;;;;;;-144.77;100.00;59014.09;338010;29;944;-69
2022/04/06 00:23:25;;;;;;;364.58;135.05;;;;;;;-144.77;100.00;59014.09;336632;29;931;-70
2022/04/06 00:23:35;;;;;;;367.23;137.13;;;;;;;-144.77;100.00;59014.09;338231;29;803;-69
2022/04/06 00:23:46;;;;;;;372.20;141.40;;;;;;;-144.77;100.00;59014.09;339295;29;774;-69
2022/04/06 00:23:56;;;;;;;371.10;141.20;;;;;;;-144.77;100.00;59014.09;339600;28;1417;-69
2022/04/06 00:24:07;;;;;;;368.87;140.57;;;;;;;-144.77;100.00;59014.09;339580;28;1654;-69
2022/04/06 00:24:17;;;;;;;367.38;138.15;;;;;;;-144.77;100.00;59014.09;340658;28;1226;-69
2022/04/06 00:24:28;;;;;;;368.93;137.20;;;;;;;-144.77;100.00;59014.09;339261;29;909;-69
2022/04/06 00:24:38;;;;;;;369.33;136.30;;;;;;;-144.77;100.00;59014.09;337699;29;790;-70
2022/04/06 00:24:48;;;;;;;366.13;135.63;;;;;;;-144.77;100.00;59014.09;337760;28;1202;-70
2022/04/06 00:24:59;;;;;;;365.58;136.52;;;;;;;-144.77;100.00;59014.09;337126;29;1260;-70
2022/04/06 00:25:09;;;;;;;366.37;138.70;;;;;;;-144.77;100.00;59014.09;340688;28;1329;-70
2022/04/06 00:25:20;;;;;;;367.13;137.07;;;;;;;-144.77;100.00;59014.09;340304;28;1189;-70
2022/04/06 00:25:32;;;;;;;366.07;135.93;;;;;;;-144.77;100.00;59014.09;340843;28;877;-69
2022/04/06 00:25:42;;;;;;;365.67;135.07;;;;;;;-144.77;100.00;59014.09;340683;28;830;-69
2022/04/06 00:25:55;;;;;;;367.30;135.77;;;;;;;-144.77;100.00;59014.09;339302;29;1251;-69
2022/04/06 00:26:05;;;;;;;368.75;135.45;;;;;;;-144.77;100.00;59014.09;336886;29;890;-69
2022/04/06 00:26:15;;;;;;;367.30;137.20;;;;;;;-144.77;100.00;59014.09;336206;29;1620;-69
2022/04/06 00:26:26;;;;;;;371.30;140.67;;;;;;;-144.77;100.00;59014.09;338822;29;718;-69
2022/04/06 00:26:36;;;;;;;373.45;142.57;;;;;;;-144.77;100.00;59014.09;340995;28;1156;-69
2022/04/06 00:26:47;;;;;;;372.43;139.70;;;;;;;-144.77;100.00;59014.09;340782;28;810;-69
2022/04/06 00:26:57;;;;;;;370.05;135.77;;;;;;;-144.77;100.00;59014.09;340792;28;1205;-69
2022/04/06 00:27:08;;;;;;;367.17;133.67;;;;;;;-144.77;100.00;59014.09;340743;28;1165;-69
2022/04/06 00:27:18;;;;;;;369.10;137.10;;;;;;;-144.77;100.00;59014.09;340360;28;864;-69
2022/04/06 00:27:29;;;;;;;368.17;138.80;;;;;;;-144.77;100.00;59014.09;337965;29;1471;-69
2022/04/06 00:27:39;;;;;;;369.67;138.73;;;;;;;-144.77;100.00;59014.09;339492;29;1211;-69
2022/04/06 00:27:50;;;;;;;366.10;136.07;;;;;;;-144.77;100.00;59014.09;337996;29;1423;-69
2022/04/06 00:28:00;;;;;;;368.07;136.60;;;;;;;-144.77;100.00;59014.09;338299;29;1231;-69
2022/04/06 00:28:10;;;;;;;369.10;137.27;;;;;;;-144.77;100.00;59014.09;338081;29;1306;-70
2022/04/06 00:28:21;;;;;;;368.63;136.20;;;;;;;-144.77;100.00;59014.09;337861;29;914;-70
2022/04/06 00:28:32;;;;;;;364.92;133.50;;;;;;;-144.77;100.00;59014.09;339315;29;1005;-70
2022/04/06 00:28:42;;;;;;;363.27;134.13;;;;;;;-144.77;100.00;59014.09;337110;29;763;-70
2022/04/06 00:28:52;;;;;;;366.10;136.50;;;;;;;-144.77;100.00;59014.09;336845;29;954;-70
2022/04/06 00:29:03;;;;;;;369.37;138.30;;;;;;;-144.77;100.00;59014.09;339058;29;1438;-69
2022/04/06 00:29:13;;;;;;;369.42;138.77;;;;;;;-144.77;100.00;59014.09;339238;28;2754;-69
2022/04/06 00:29:24;;;;;;;369.90;140.20;;;;;;;-144.77;100.00;59014.09;339237;29;818;-69
2022/04/06 00:29:34;;;;;;;370.67;141.97;;;;;;;-144.77;100.00;59014.09;336031;29;1367;-69
2022/04/06 00:29:44;;;;;;;370.93;142.80;;;;;;;-144.77;100.00;59014.09;334471;29;1306;-69
2022/04/06 00:29:55;;;;;;;369.43;142.43;;;;;;;-144.77;100.00;59014.09;334553;29;1180;-69
2022/04/06 00:30:06;;;;;;;368.37;142.57;;;;;;;-144.77;100.00;59014.09;335451;29;1197;-69
2022/04/06 00:30:16;;;;;;;368.83;140.70;;;;;;;-144.77;100.00;59014.09;336623;29;926;-69
2022/04/06 00:30:26;;;;;;;372.13;141.27;;;;;;;-144.77;100.00;59014.09;339124;29;1304;-69
2022/04/06 00:30:37;;;;;;;371.45;138.90;;;;;;;-144.77;100.00;59014.09;339537;29;810;-69
2022/04/06 00:30:47;;;;;;;371.27;140.07;;;;;;;-144.77;100.00;59014.09;338724;29;1308;-69
2022/04/06 00:30:58;;;;;;;370.45;139.68;;;;;;;-144.77;100.00;59014.09;336725;29;1195;-69
2022/04/06 00:31:08;;;;;;;371.10;140.70;;;;;;;-144.77;100.00;59014.09;338581;29;1410;-69
2022/04/06 00:31:19;;;;;;;371.95;141.05;;;;;;;-144.77;100.00;59014.09;337256;29;1483;-69
2022/04/06 00:31:30;;;;;;;371.00;140.27;;;;;;;-144.77;100.00;59014.09;338092;29;1075;-69
2022/04/06 00:31:41;;;;;;;370.80;137.50;;;;;;;-144.77;100.00;59014.09;340451;28;1271;-69
2022/04/06 00:31:51;;;;;;;368.50;133.60;;;;;;;-144.77;100.00;59014.09;340787;28;1486;-69
2022/04/06 00:32:02;;;;;;;367.00;134.32;;;;;;;-144.77;100.00;59014.09;342207;28;980;-69
2022/04/06 00:32:12;;;;;;;367.35;136.02;;;;;;;-144.77;100.00;59014.09;340518;28;875;-69
2022/04/06 00:32:23;;;;;;;369.10;136.70;;;;;;;-144.77;100.00;59014.09;340752;28;822;-69
2022/04/06 00:32:33;;;;;;;369.50;136.07;;;;;;;-144.77;100.00;59014.09;340571;28;1137;-69
2022/04/06 00:32:43;;;;;;;369.20;136.53;;;;;;;-144.77;100.00;59014.09;339469;29;739;-69
2022/04/06 00:32:54;;;;;;;370.43;136.70;;;;;;;-144.77;100.00;59014.09;339160;29;1191;-70
2022/04/06 00:33:04;;;;;;;371.60;135.83;;;;;;;-144.77;100.00;59014.09;340670;28;1363;-70
2022/04/06 00:33:15;;;;;;;371.23;134.93;;;;;;;-144.77;100.00;59014.09;336540;29;1296;-70
2022/04/06 00:33:25;;;;;;;368.08;135.85;;;;;;;-144.77;100.00;59014.09;337865;29;1482;-70
2022/04/06 00:33:35;;;;;;;366.50;137.13;;;;;;;-144.77;100.00;59014.09;339368;29;1198;-69
2022/04/06 00:33:47;;;;;;;366.70;138.50;;;;;;;-144.77;100.00;59014.09;340667;28;818;-69
2022/04/06 00:33:57;;;;;;;367.23;139.13;;;;;;;-144.77;100.00;59014.09;340691;28;928;-69
2022/04/06 00:34:08;;;;;;;367.45;138.70;;;;;;;-144.77;100.00;59014.09;340718;28;1041;-69
2022/04/06 00:34:18;;;;;;;368.63;139.83;;;;;;;-144.77;100.00;59014.09;339433;29;1418;-69
2022/04/06 00:35:30;;;;;;;367.65;136.38;;;;;;;-144.77;100.00;59014.09;336607;29;771;-69
2022/04/06 00:35:41;;;;;;;370.20;138.02;;;;;;;-144.77;100.00;59014.09;340502;28;844;-69
2022/04/06 00:35:51;;;;;;;372.37;138.90;;;;;;;-144.77;100.00;59014.09;339023;29;1411;-69
2022/04/06 00:36:02;;;;;;;371.07;136.90;;;;;;;-144.77;100.00;59014.09;337149;29;2915;-69
2022/04/06 00:36:12;;;;;;;370.83;138.52;;;;;;;-144.77;100.00;59014.09;340449;28;1514;-69
2022/04/06 00:36:23;;;;;;;368.67;139.70;;;;;;;-144.77;100.00;59014.09;341842;28;1347;-69
2022/04/06 00:36:33;;;;;;;370.57;143.17;;;;;;;-144.77;100.00;59014.09;342011;28;1308;-70
2022/04/06 00:36:44;;;;;;;368.43;140.57;;;;;;;-144.77;100.00;59014.09;340487;28;911;-70
2022/04/06 00:36:55;;;;;;;370.33;140.70;;;;;;;-144.77;100.00;59014.09;338112;29;783;-70
2022/04/06 00:37:05;;;;;;;370.45;139.45;;;;;;;-144.77;100.00;59014.09;339163;29;1697;-69
2022/04/06 00:37:16;;;;;;;371.77;140.43;;;;;;;-144.77;100.00;59014.09;339300;28;759;-69
2022/04/06 00:37:26;;;;;;;369.57;141.27;;;;;;;-144.77;100.00;59014.09;339427;29;1445;-69
2022/04/06 00:37:37;;;;;;;368.90;139.82;;;;;;;-144.77;100.00;59014.09;339166;29;1217;-69
2022/04/06 00:37:47;;;;;;;368.03;139.40;;;;;;;-144.77;100.00;59014.09;339325;29;1218;-69
2022/04/06 00:37:58;;;;;;;370.17;139.95;;;;;;;-144.77;100.00;59014.09;337788;29;1122;-69
2022/04/06 00:38:09;;;;;;;370.40;141.15;;;;;;;-144.77;100.00;59014.09;338053;29;921;-69
2022/04/06 00:38:19;;;;;;;372.83;140.02;;;;;;;-144.77;100.00;59014.09;340194;28;787;-69
2022/04/06 00:38:30;;;;;;;372.95;138.75;;;;;;;-144.77;100.00;59014.09;340960;28;948;-69
2022/04/06 00:38:40;;;;;;;370.13;139.00;;;;;;;-144.77;100.00;59014.09;342203;28;1286;-69
2022/04/06 00:38:51;;;;;;;369.17;141.23;;;;;;;-144.77;100.00;59014.09;340707;28;1268;-69
2022/04/06 00:39:01;;;;;;;367.63;140.70;;;;;;;-144.77;100.00;59014.09;339446;28;1608;-70
2022/04/06 00:39:12;;;;;;;367.55;140.10;;;;;;;-144.77;100.00;59014.09;341651;28;790;-70
2022/04/06 00:39:22;;;;;;;366.60;137.13;;;;;;;-144.77;100.00;59014.09;337790;29;1365;-69
2022/04/06 00:39:33;;;;;;;366.30;137.70;;;;;;;-144.77;100.00;59014.09;337531;29;877;-69
2022/04/06 00:39:43;;;;;;;368.23;138.80;;;;;;;-144.77;100.00;59014.09;338339;28;1291;-70
2022/04/06 00:39:53;;;;;;;369.38;140.00;;;;;;;-144.77;100.00;59014.09;335753;29;1058;-69
2022/04/06 00:40:05;;;;;;;371.77;141.13;;;;;;;-144.77;100.00;59014.09;336638;29;886;-69
2022/04/06 00:40:15;;;;;;;370.02;140.25;;;;;;;-144.77;100.00;59014.09;338907;29;920;-69
2022/04/06 00:40:26;;;;;;;368.38;140.27;;;;;;;-144.77;100.00;59014.09;336438;29;890;-69
2022/04/06 00:40:36;;;;;;;369.33;140.85;;;;;;;-144.77;100.00;59014.09;336774;29;1137;-69
2022/04/06 00:40:47;;;;;;;369.63;139.57;;;;;;;-144.77;100.00;59014.09;337759;29;1436;-69
2022/04/06 00:40:57;;;;;;;368.65;138.82;;;;;;;-144.77;100.00;59014.09;337134;29;1378;-69
2022/04/06 00:41:08;;;;;;;367.13;137.60;;;;;;;-144.77;100.00;59014.09;337851;29;1487;-69
2022/04/06 00:41:18;;;;;;;369.20;140.35;;;;;;;-144.77;100.00;59014.09;338030;29;834;-69
2022/04/06 00:41:29;;;;;;;371.17;140.33;;;;;;;-144.77;100.00;59014.09;340285;28;1946;-69
2022/04/06 00:41:39;;;;;;;372.55;141.98;;;;;;;-144.77;100.00;59014.09;342035;28;1416;-69
2022/04/06 00:41:50;;;;;;;370.50;141.07;;;;;;;-144.77;100.00;59014.09;340013;28;1693;-69
2022/04/06 00:42:00;;;;;;;367.52;138.48;;;;;;;-144.77;100.00;59014.09;340860;28;1331;-69
2022/04/06 00:42:10;;;;;;;366.07;136.70;;;;;;;-144.77;100.00;59014.09;340464;28;1304;-69
2022/04/06 00:42:21;;;;;;;365.83;134.23;;;;;;;-144.77;100.00;59014.09;340475;28;786;-69
2022/04/06 00:42:31;;;;;;;366.07;134.57;;;;;;;-144.77;100.00;59014.09;338840;29;1316;-69
2022/04/06 00:42:41;;;;;;;366.33;136.63;;;;;;;-144.77;100.00;59014.09;339410;28;1219;-69
2022/04/06 00:42:53;;;;;;;366.30;138.30;;;;;;;-144.77;100.00;59014.09;339378;29;1386;-69
2022/04/06 00:43:07;;;;;;;366.33;138.90;;;;;;;-144.77;100.00;59014.09;339666;29;897;-69
2022/04/06 00:43:18;;;;;;;365.88;138.48;;;;;;;-144.77;100.00;59014.09;337892;29;988;-69
2022/04/06 00:43:29;;;;;;;364.17;137.10;;;;;;;-144.77;100.00;59014.09;338092;29;841;-69
2022/04/06 00:43:39;;;;;;;364.75;138.20;;;;;;;-144.77;100.00;59014.09;339468;29;1229;-69
2022/04/06 00:44:11;;;;;;;365.27;136.63;;;;;;;-144.77;100.00;59014.09;340634;28;921;-69
2022/04/06 00:44:22;;;;;;;367.20;137.85;;;;;;;-144.77;100.00;59014.09;340551;28;1154;-69
2022/04/06 00:44:35;;;;;;;367.97;137.90;;;;;;;-144.77;100.00;59014.09;340157;28;806;-69
2022/04/06 00:44:46;;;;;;;365.52;134.68;;;;;;;-144.77;100.00;59014.09;338684;28;771;-69
2022/04/06 00:44:57;;;;;;;364.27;136.57;;;;;;;-144.77;100.00;59014.09;338549;28;1035;-69
2022/04/06 00:45:08;;;;;;;367.23;136.63;;;;;;;-144.77;100.00;59014.09;339827;28;766;-69
2022/04/06 00:45:19;;;;;;;369.30;137.20;;;;;;;-144.77;100.00;59014.09;338947;29;841;-69
2022/04/06 00:45:30;;;;;;;366.83;134.60;;;;;;;-144.77;100.00;59014.09;338976;28;1454;-69
2022/04/06 00:45:41;;;;;;;362.00;133.23;;;;;;;-144.77;100.00;59014.09;341213;28;1375;-69
2022/04/06 00:45:51;;;;;;;362.92;132.43;;;;;;;-144.77;100.00;59014.09;341936;28;1153;-69
2022/04/06 00:46:02;;;;;;;365.63;134.67;;;;;;;-144.77;100.00;59014.09;340268;28;1458;-69
2022/04/06 00:46:13;;;;;;;365.37;133.90;;;;;;;-144.77;100.00;59014.09;338910;29;1481;-69
2022/04/06 00:46:23;;;;;;;365.52;134.45;;;;;;;-144.77;100.00;59014.09;340130;28;814;-69
2022/04/06 00:46:34;;;;;;;367.63;135.90;;;;;;;-144.77;100.00;59014.09;339025;29;1514;-69
2022/04/06 00:46:45;;;;;;;370.65;141.13;;;;;;;-144.77;100.00;59014.09;340320;28;1294;-69
2022/04/06 00:46:55;;;;;;;372.00;142.38;;;;;;;-144.77;100.00;59014.09;339298;29;841;-69
2022/04/06 00:47:06;;;;;;;371.27;143.43;;;;;;;-144.77;100.00;59014.09;340463;28;889;-69
2022/04/06 00:47:16;;;;;;;368.10;142.07;;;;;;;-144.77;100.00;59014.09;340669;28;758;-69
2022/04/06 00:47:26;;;;;;;367.80;141.53;;;;;;;-144.77;100.00;59014.09;342083;28;880;-71
2022/04/06 00:47:37;;;;;;;367.10;140.13;;;;;;;-144.77;100.00;59014.09;340202;28;1557;-70
2022/04/06 00:47:47;;;;;;;368.50;139.33;;;;;;;-144.77;100.00;59014.09;336331;29;1226;-70
2022/04/06 00:47:58;;;;;;;367.50;137.68;;;;;;;-144.77;100.00;59014.09;337999;29;1361;-70
2022/04/06 00:48:09;;;;;;;367.50;136.07;;;;;;;-144.77;100.00;59014.09;337983;29;894;-70
2022/04/06 00:48:19;;;;;;;367.70;138.55;;;;;;;-144.77;100.00;59014.09;338952;29;1000;-69
2022/04/06 00:48:30;;;;;;;369.27;142.82;;;;;;;-144.77;100.00;59014.09;339028;29;920;-69
2022/04/06 00:48:40;;;;;;;366.58;141.45;;;;;;;-144.77;100.00;59014.09;338036;29;1308;-70
2022/04/06 00:48:51;;;;;;;365.03;136.40;;;;;;;-144.77;100.00;59014.09;339350;29;1171;-70